Time;durP1;ratioP1;P1;durP2;ratioP2;P2;SDS_P1;SDS_P2;PMS_P1;PMS_P2;Temp;Humidity;BMP_temperature;BMP_pressure;BME280_temperature;BME280_humidity;BME280_pressure;Samples;Min_cycle;Max_cycle;Signal;HPM_P1;HPM_P2
2023/10/06 00:02:55;;;;;;;38.35;24.08;;;21.30;99.90;;;;;;5030839;28;20056;-70
2023/10/06 00:05:59;;;;;;;34.35;24.48;;;21.30;99.90;;;;;;5030786;28;20044;-70
2023/10/06 00:09:06;;;;;;;34.75;23.30;;;21.30;99.90;;;;;;5030668;28;20044;-70
2023/10/06 00:12:13;;;;;;;31.35;24.80;;;21.20;99.90;;;;;;5030873;28;20049;-70
2023/10/06 00:15:26;;;;;;;35.22;26.63;;;21.20;99.90;;;;;;5031086;28;20049;-69
2023/10/06 00:18:30;;;;;;;40.55;28.50;;;21.00;99.90;;;;;;5030749;28;20691;-69
2023/10/06 00:21:34;;;;;;;39.63;27.50;;;20.90;99.90;;;;;;5030715;28;20052;-69
2023/10/06 00:24:44;;;;;;;39.20;27.33;;;20.70;99.90;;;;;;5030943;28;20085;-69
2023/10/06 00:27:47;;;;;;;36.10;27.67;;;20.50;99.90;;;;;;5030189;28;20040;-70
2023/10/06 00:30:56;;;;;;;37.53;27.95;;;20.50;99.90;;;;;;5029853;28;20064;-70
2023/10/06 00:34:01;;;;;;;38.63;27.98;;;20.50;99.90;;;;;;5030539;28;20049;-69
2023/10/06 00:37:11;;;;;;;40.05;28.38;;;20.50;99.90;;;;;;5030559;28;20049;-69
2023/10/06 00:40:24;;;;;;;40.40;28.90;;;20.50;99.90;;;;;;5030736;28;20052;-69
2023/10/06 00:43:34;;;;;;;36.38;26.65;;;20.50;99.90;;;;;;5029791;28;20056;-70
2023/10/06 00:46:42;;;;;;;36.75;27.52;;;20.50;99.90;;;;;;5033841;28;20045;-69
2023/10/06 00:49:46;;;;;;;35.08;27.20;;;20.60;99.90;;;;;;5033307;28;20112;-69
2023/10/06 00:52:51;;;;;;;42.90;26.55;;;20.60;99.90;;;;;;5034020;28;20045;-69
2023/10/06 00:55:55;;;;;;;36.40;27.40;;;20.70;99.90;;;;;;5033393;28;20481;-69
2023/10/06 00:59:04;;;;;;;37.60;26.02;;;20.70;99.90;;;;;;5034186;28;20389;-69
2023/10/06 01:02:11;;;;;;;38.65;26.50;;;20.60;99.90;;;;;;5034103;28;20049;-69
2023/10/06 01:05:16;;;;;;;41.72;27.23;;;20.60;99.90;;;;;;5021668;28;20040;-69
2023/10/06 01:08:20;;;;;;;34.15;27.33;;;20.60;99.90;;;;;;5034002;28;20049;-69
2023/10/06 01:11:26;;;;;;;35.13;27.08;;;20.60;99.90;;;;;;5033854;28;20044;-69
2023/10/06 01:14:36;;;;;;;38.83;26.75;;;20.60;99.90;;;;;;5032918;28;20397;-69
2023/10/06 01:17:40;;;;;;;35.63;26.08;;;20.50;99.90;;;;;;5032759;28;20503;-69
2023/10/06 01:20:44;;;;;;;34.65;25.63;;;20.80;99.90;;;;;;5032830;28;20048;-70
2023/10/06 01:23:48;;;;;;;35.50;25.52;;;20.50;99.90;;;;;;5033538;28;20060;-70
2023/10/06 01:27:06;;;;;;;34.65;25.13;;;20.50;99.90;;;;;;5033533;28;20045;-70
2023/10/06 01:30:17;;;;;;;32.83;25.52;;;20.40;99.90;;;;;;5033407;28;20052;-69
2023/10/06 01:33:21;;;;;;;;;;;19.10;99.90;;;;;;5033729;28;20396;-69
2023/10/06 01:36:26;;;;;;;35.63;25.77;;;20.40;99.90;;;;;;5033468;28;19916;-69
2023/10/06 01:39:32;;;;;;;39.38;26.23;;;20.40;99.90;;;;;;5032292;28;20040;-70
2023/10/06 01:42:36;;;;;;;38.53;28.63;;;20.30;99.90;;;;;;5033290;28;20345;-70
2023/10/06 01:45:43;;;;;;;38.13;27.77;;;20.30;99.90;;;;;;5033407;28;20048;-69
2023/10/06 01:48:47;;;;;;;40.22;27.33;;;20.30;99.90;;;;;;5032279;28;20040;-69
2023/10/06 01:51:52;;;;;;;33.67;25.90;;;20.30;99.90;;;;;;5032985;28;20040;-69
2023/10/06 01:55:09;;;;;;;33.92;25.42;;;20.30;99.90;;;;;;5032920;28;20044;-70
2023/10/06 01:58:13;;;;;;;39.50;26.00;;;20.30;99.90;;;;;;5033120;28;20045;-70
2023/10/06 02:01:20;;;;;;;37.55;26.15;;;20.30;99.90;;;;;;5032393;28;20056;-70
2023/10/06 02:04:25;;;;;;;32.88;25.27;;;20.20;99.90;;;;;;5031733;28;20060;-70
2023/10/06 02:07:30;;;;;;;34.75;25.23;;;20.20;99.90;;;;;;5032797;28;20044;-70
2023/10/06 02:10:34;;;;;;;36.17;25.52;;;20.20;99.90;;;;;;5032073;28;20056;-70
2023/10/06 02:13:38;;;;;;;36.10;25.88;;;19.20;99.90;;;;;;5031654;28;20056;-70
2023/10/06 02:16:45;;;;;;;30.45;24.88;;;20.20;99.90;;;;;;5031861;28;20045;-70
2023/10/06 02:19:49;;;;;;;36.67;26.38;;;20.10;99.90;;;;;;5031679;28;20045;-70
2023/10/06 02:23:03;;;;;;;37.60;26.98;;;20.20;99.90;;;;;;5032447;28;20060;-69
2023/10/06 02:26:09;;;;;;;34.00;26.95;;;19.60;99.90;;;;;;5032349;28;20052;-70
2023/10/06 02:29:26;;;;;;;37.17;27.25;;;20.00;99.90;;;;;;5032461;28;20052;-70
2023/10/06 02:32:34;;;;;;;36.47;28.42;;;20.10;99.90;;;;;;5020083;28;20040;-70
2023/10/06 02:35:46;;;;;;;32.80;24.85;;;20.10;99.90;;;;;;5020253;28;20485;-70
2023/10/06 02:38:51;;;;;;;43.03;28.92;;;20.10;99.90;;;;;;5031147;28;20036;-69
2023/10/06 02:41:58;;;;;;;34.20;26.67;;;20.30;99.90;;;;;;5032040;28;20045;-70
2023/10/06 02:45:06;;;;;;;40.90;27.75;;;20.30;99.90;;;;;;5032252;28;20060;-69
2023/10/06 02:48:22;;;;;;;35.33;26.50;;;20.30;99.90;;;;;;5031696;28;20048;-69
2023/10/06 02:51:30;;;;;;;35.30;27.02;;;20.20;99.90;;;;;;5032040;28;20064;-69
2023/10/06 02:54:34;;;;;;;34.72;26.30;;;20.50;99.90;;;;;;5031954;28;20044;-71
2023/10/06 02:57:41;;;;;;;35.85;25.63;;;20.20;99.90;;;;;;5019787;28;20068;-70
2023/10/06 03:00:50;;;;;;;32.97;24.48;;;20.20;99.90;;;;;;5031806;28;20401;-70
2023/10/06 03:04:06;;;;;;;35.10;25.23;;;20.10;99.90;;;;;;5031646;28;20045;-70
2023/10/06 03:07:18;;;;;;;33.28;24.80;;;20.10;99.90;;;;;;5030661;28;20504;-70
2023/10/06 03:10:26;;;;;;;32.15;23.70;;;;;;;;;;5030900;28;20072;-70
2023/10/06 03:13:36;;;;;;;34.47;25.13;;;20.00;99.90;;;;;;5031920;28;20056;-70
2023/10/06 03:16:43;;;;;;;34.05;24.88;;;20.00;99.90;;;;;;5030866;28;20059;-70
2023/10/06 03:20:09;;;;;;;35.22;25.20;;;19.90;99.90;;;;;;5030566;28;20508;-70
2023/10/06 03:23:29;;;;;;;35.40;25.15;;;21.30;99.90;;;;;;5030659;28;20044;-70
2023/10/06 03:26:34;;;;;;;38.28;24.30;;;19.80;99.90;;;;;;5030815;28;20040;-72
2023/10/06 03:30:07;;;;;;;33.42;23.35;;;20.00;99.90;;;;;;5030476;28;20072;-71
2023/10/06 03:33:12;;;;;;;36.03;24.40;;;19.90;99.90;;;;;;5030501;28;20052;-70
2023/10/06 03:36:26;;;;;;;31.17;24.50;;;19.90;99.90;;;;;;5030583;28;20397;-71
2023/10/06 03:39:38;;;;;;;34.17;23.42;;;19.80;99.90;;;;;;5030333;28;20040;-69
2023/10/06 03:42:43;;;;;;;31.08;23.08;;;19.00;99.90;;;;;;5031131;28;20040;-71
2023/10/06 03:45:48;;;;;;;30.23;21.60;;;20.00;99.90;;;;;;5031116;28;20052;-69
2023/10/06 03:48:52;;;;;;;28.33;21.98;;;21.60;99.90;;;;;;5030273;28;20040;-69
2023/10/06 03:51:56;;;;;;;31.80;22.27;;;20.20;99.90;;;;;;5030996;28;20396;-69
2023/10/06 03:55:00;;;;;;;31.20;22.70;;;20.00;99.90;;;;;;5031224;28;20040;-69
2023/10/06 03:58:06;;;;;;;33.15;23.48;;;19.60;99.90;;;;;;5030820;28;20044;-69
2023/10/06 04:01:14;;;;;;;32.60;22.80;;;19.50;99.90;;;;;;5031163;28;20048;-70
2023/10/06 04:04:22;;;;;;;33.78;24.20;;;19.70;99.90;;;;;;5029905;28;20052;-70
2023/10/06 04:07:26;;;;;;;31.55;23.40;;;19.80;99.90;;;;;;5031321;28;20061;-70
2023/10/06 04:10:33;;;;;;;35.95;24.33;;;19.90;99.90;;;;;;5031046;28;20064;-70
2023/10/06 04:13:38;;;;;;;32.15;23.33;;;19.90;99.90;;;;;;5031223;28;20056;-70
2023/10/06 04:16:45;;;;;;;34.13;24.48;;;21.00;99.90;;;;;;5030994;28;20045;-70
2023/10/06 04:19:51;;;;;;;33.53;24.90;;;19.60;99.90;;;;;;5032693;28;20049;-70
2023/10/06 04:22:55;;;;;;;32.90;26.05;;;19.70;99.90;;;;;;5034600;28;20048;-70
2023/10/06 04:25:59;;;;;;;37.05;25.67;;;19.60;99.90;;;;;;5034193;28;20056;-71
2023/10/06 04:29:06;;;;;;;38.38;26.25;;;19.60;99.90;;;;;;5034730;28;20041;-70
2023/10/06 04:32:13;;;;;;;35.47;27.80;;;18.30;99.90;;;;;;5035003;28;20044;-70
2023/10/06 04:35:21;;;;;;;37.80;26.52;;;21.30;99.90;;;;;;5034769;28;20040;-70
2023/10/06 04:38:29;;;;;;;37.30;26.98;;;19.50;99.90;;;;;;5034355;28;20042;-70
2023/10/06 04:41:33;;;;;;;41.85;26.20;;;19.70;99.90;;;;;;5034499;28;20049;-70
2023/10/06 04:44:37;;;;;;;39.53;27.23;;;19.80;99.90;;;;;;5034149;28;20045;-70
2023/10/06 04:47:42;;;;;;;40.83;27.45;;;19.60;99.90;;;;;;5034407;28;20496;-70
2023/10/06 04:50:46;;;;;;;45.78;29.20;;;19.70;99.90;;;;;;5034368;28;20044;-70
2023/10/06 04:53:49;;;;;;;37.08;26.73;;;19.60;99.90;;;;;;5034366;28;20056;-70
2023/10/06 04:56:53;;;;;;;36.95;28.88;;;19.60;99.90;;;;;;5034294;28;20044;-70
2023/10/06 04:59:58;;;;;;;38.00;26.65;;;20.90;99.90;;;;;;5033874;28;20104;-70
2023/10/06 05:03:06;;;;;;;37.65;27.30;;;19.60;99.90;;;;;;5033845;28;20408;-70
2023/10/06 05:06:21;;;;;;;37.30;27.08;;;18.30;99.90;;;;;;5033895;28;20045;-70
2023/10/06 05:09:25;;;;;;;41.70;28.85;;;19.70;99.90;;;;;;5033958;28;20048;-70
2023/10/06 05:12:32;;;;;;;47.90;28.52;;;19.70;99.90;;;;;;5033430;28;20056;-69
2023/10/06 05:15:40;;;;;;;39.55;27.08;;;19.70;99.90;;;;;;5033771;28;20045;-71
2023/10/06 05:18:45;;;;;;;36.33;25.30;;;19.80;99.90;;;;;;5033880;28;20523;-70
2023/10/06 05:21:52;;;;;;;41.67;27.73;;;21.00;99.90;;;;;;5033570;28;20056;-70
2023/10/06 05:24:59;;;;;;;43.28;27.30;;;19.80;99.90;;;;;;5033452;28;20151;-69
2023/10/06 05:28:10;;;;;;;46.60;28.08;;;19.80;99.90;;;;;;5032828;28;20245;-70
2023/10/06 05:31:14;;;;;;;41.17;26.57;;;19.80;99.90;;;;;;5032991;28;20068;-70
2023/10/06 05:34:18;;;;;;;40.33;27.65;;;19.90;99.90;;;;;;5033239;28;20499;-55
2023/10/06 05:37:22;;;;;;;48.13;32.03;;;19.90;99.90;;;;;;5032863;28;20052;-56
2023/10/06 05:40:29;;;;;;;52.22;32.80;;;20.10;99.90;;;;;;5033293;28;20539;-58
2023/10/06 05:43:33;;;;;;;44.42;32.00;;;16.90;99.90;;;;;;5032767;28;20060;-57
2023/10/06 05:46:37;;;;;;;58.03;32.50;;;19.30;99.90;;;;;;5033037;28;20040;-57
2023/10/06 05:49:47;;;;;;;54.28;29.38;;;20.20;99.90;;;;;;5032705;28;20041;-58
2023/10/06 05:52:53;;;;;;;48.03;30.40;;;20.40;99.90;;;;;;5033010;28;20068;-57
2023/10/06 05:56:02;;;;;;;56.72;29.60;;;20.90;99.90;;;;;;5032565;28;20113;-57
2023/10/06 05:59:06;;;;;;;44.60;27.60;;;21.20;99.90;;;;;;5032887;28;20398;-58
2023/10/06 06:02:11;;;;;;;44.55;27.67;;;21.30;99.90;;;;;;5032878;28;20049;-57
2023/10/06 06:05:16;;;;;;;49.35;26.58;;;22.80;99.90;;;;;;5032699;28;20072;-56
2023/10/06 06:08:20;;;;;;;43.65;26.35;;;21.80;99.90;;;;;;5032653;28;20053;-57
2023/10/06 06:11:24;;;;;;;48.63;24.48;;;22.40;99.00;;;;;;5032299;28;20049;-57
2023/10/06 06:14:31;;;;;;;39.40;23.58;;;23.00;97.80;;;;;;5032260;28;20508;-56
2023/10/06 06:17:36;;;;;;;40.80;24.13;;;23.30;97.20;;;;;;5032204;28;20048;-57
2023/10/06 06:20:42;;;;;;;41.65;23.83;;;23.70;96.40;;;;;;5032339;28;20056;-57
2023/10/06 06:23:49;;;;;;;33.10;23.63;;;23.90;96.00;;;;;;5032056;28;20076;-58
2023/10/06 06:26:53;;;;;;;43.40;25.58;;;24.10;95.60;;;;;;5032357;28;20065;-58
2023/10/06 06:29:57;;;;;;;42.25;27.40;;;24.10;95.40;;;;;;5032114;28;20052;-56
2023/10/06 06:33:04;;;;;;;48.42;28.58;;;24.00;95.50;;;;;;5031831;28;20045;-58
2023/10/06 06:36:08;;;;;;;43.67;28.42;;;23.80;95.80;;;;;;5031933;28;20052;-57
2023/10/06 06:39:12;;;;;;;48.85;27.73;;;23.70;95.90;;;;;;5032023;28;20077;-58
2023/10/06 06:42:16;;;;;;;55.17;29.02;;;23.50;96.30;;;;;;5031294;28;20048;-58
2023/10/06 06:45:26;;;;;;;50.60;29.02;;;23.50;96.60;;;;;;5030861;28;20642;-58
2023/10/06 06:48:29;;;;;;;55.38;29.83;;;23.40;96.60;;;;;;5031618;28;20041;-58
2023/10/06 06:51:35;;;;;;;47.13;30.05;;;23.40;96.70;;;;;;5031337;28;20500;-58
2023/10/06 06:54:46;;;;;;;40.63;27.73;;;23.40;96.90;;;;;;5030628;28;20389;-57
2023/10/06 06:57:50;;;;;;;49.25;30.58;;;23.40;97.10;;;;;;5031615;28;20048;-58
2023/10/06 07:00:57;;;;;;;50.95;30.98;;;23.60;96.90;;;;;;5031309;28;20036;-57
2023/10/06 07:04:01;;;;;;;45.97;29.45;;;23.60;97.00;;;;;;5031255;28;20428;-58
2023/10/06 07:07:06;;;;;;;46.85;29.20;;;23.60;97.20;;;;;;5031359;28;20040;-59
2023/10/06 07:10:13;;;;;;;51.30;30.10;;;23.80;96.90;;;;;;5031235;28;20052;-57
2023/10/06 07:13:17;;;;;;;44.25;27.10;;;23.80;97.10;;;;;;5031159;28;20052;-57
2023/10/06 07:16:24;;;;;;;44.15;28.13;;;23.70;97.30;;;;;;5031390;28;20401;-58
2023/10/06 07:19:29;;;;;;;40.30;26.67;;;23.80;97.30;;;;;;5031043;28;20048;-59
2023/10/06 07:22:33;;;;;;;44.70;25.33;;;24.10;97.30;;;;;;5031214;28;20468;-61
2023/10/06 07:25:37;;;;;;;45.75;26.27;;;24.30;96.80;;;;;;5031441;28;20052;-61
2023/10/06 07:28:41;;;;;;;49.20;26.33;;;24.50;96.50;;;;;;5030933;28;20048;-60
2023/10/06 07:31:48;;;;;;;49.47;27.27;;;24.70;96.10;;;;;;5030962;28;20044;-62
2023/10/06 07:34:53;;;;;;;40.78;26.52;;;24.80;95.80;;;;;;5031220;28;20048;-61
2023/10/06 07:37:57;;;;;;;39.38;25.77;;;24.90;95.60;;;;;;5031175;28;20056;-60
2023/10/06 07:41:03;;;;;;;35.35;22.52;;;25.00;95.60;;;;;;5031156;28;20413;-61
2023/10/06 07:44:07;;;;;;;37.63;23.10;;;25.20;95.60;;;;;;5029909;28;20056;-60
2023/10/06 07:47:12;;;;;;;39.28;25.80;;;25.40;95.60;;;;;;5030814;28;20148;-60
2023/10/06 07:50:16;;;;;;;46.17;28.05;;;25.50;94.90;;;;;;5030963;28;20048;-60
2023/10/06 07:53:20;;;;;;;36.47;25.40;;;25.50;95.30;;;;;;5030195;28;20048;-57
2023/10/06 07:56:26;;;;;;;48.22;28.30;;;25.50;95.30;;;;;;5030771;28;20113;-58
2023/10/06 07:59:32;;;;;;;35.67;24.92;;;25.40;95.20;;;;;;5029653;28;20048;-58
2023/10/06 08:02:39;;;;;;;37.05;23.25;;;25.30;95.50;;;;;;5030178;28;20044;-58
2023/10/06 08:05:43;;;;;;;26.90;18.27;;;25.40;95.60;;;;;;5030604;28;20064;-58
2023/10/06 08:08:48;;;;;;;31.05;18.02;;;25.60;95.80;;;;;;5030438;28;20044;-58
2023/10/06 08:11:54;;;;;;;32.38;17.30;;;25.90;95.20;;;;;;5030306;28;20132;-58
2023/10/06 08:14:58;;;;;;;30.73;19.35;;;25.90;95.10;;;;;;5030429;28;20048;-60
2023/10/06 08:18:03;;;;;;;27.60;17.67;;;26.20;95.20;;;;;;5030288;28;20048;-58
2023/10/06 08:21:07;;;;;;;31.02;20.17;;;26.20;94.70;;;;;;5030493;28;20044;-60
2023/10/06 08:24:15;;;;;;;26.45;15.55;;;26.40;94.80;;;;;;5030571;28;20057;-59
2023/10/06 08:27:23;;;;;;;38.25;20.48;;;26.50;94.60;;;;;;5030683;28;20049;-57
2023/10/06 08:30:27;;;;;;;24.15;15.07;;;26.60;94.50;;;;;;5030263;28;20658;-59
2023/10/06 08:33:31;;;;;;;34.25;17.38;;;26.10;94.50;;;;;;5030644;28;20048;-59
2023/10/06 08:36:38;;;;;;;19.48;12.77;;;26.60;94.20;;;;;;5030613;28;20045;-58
2023/10/06 08:39:44;;;;;;;19.88;11.40;;;26.60;94.10;;;;;;5030424;28;20052;-61
2023/10/06 08:42:52;;;;;;;25.58;11.65;;;26.50;93.70;;;;;;5030558;28;20053;-59
2023/10/06 08:45:59;;;;;;;31.25;16.55;;;26.60;93.80;;;;;;5030285;28;20377;-59
2023/10/06 08:49:05;;;;;;;22.65;13.85;;;28.70;94.40;;;;;;5030159;28;20662;-59
2023/10/06 08:52:12;;;;;;;16.05;10.50;;;26.50;94.10;;;;;;5030260;28;20043;-59
2023/10/06 08:55:17;;;;;;;17.73;11.70;;;26.70;94.10;;;;;;5030348;28;20410;-59
2023/10/06 08:58:26;;;;;;;20.73;11.55;;;26.70;93.60;;;;;;5030468;28;20052;-59
2023/10/06 09:01:32;;;;;;;16.55;9.95;;;26.90;93.40;;;;;;5030546;28;20504;-58
2023/10/06 09:04:37;;;;;;;14.95;10.30;;;26.80;93.80;;;;;;5029184;28;20056;-59
2023/10/06 09:07:59;;;;;;;18.52;9.23;;;27.00;93.90;;;;;;5033528;28;20048;-58
2023/10/06 09:11:04;;;;;;;17.63;9.13;;;27.00;93.80;;;;;;5033861;28;20045;-59
2023/10/06 09:14:08;;;;;;;19.95;11.73;;;27.10;93.50;;;;;;4994648;28;20062;-59
2023/10/06 09:17:12;;;;;;;18.15;9.80;;;27.00;93.10;;;;;;4994077;28;20045;-58
2023/10/06 09:20:32;;;;;;;15.50;9.50;;;27.00;92.40;;;;;;4994150;28;20061;-58
2023/10/06 09:23:39;;;;;;;16.70;8.70;;;27.90;93.00;;;;;;4993106;28;20126;-61
2023/10/06 09:26:46;;;;;;;14.82;8.73;;;26.90;92.00;;;;;;4994251;28;20077;-59
2023/10/06 09:30:00;;;;;;;12.70;8.60;;;27.40;91.90;;;;;;4993961;28;20041;-59
2023/10/06 09:33:04;;;;;;;12.60;8.27;;;27.30;92.10;;;;;;4994126;28;20392;-60
2023/10/06 09:36:11;;;;;;;16.58;9.73;;;27.40;92.10;;;;;;4994096;28;20061;-59
2023/10/06 09:39:26;;;;;;;19.35;11.65;;;27.60;90.80;;;;;;4993648;28;20504;-60
2023/10/06 09:42:33;;;;;;;20.65;13.40;;;27.60;91.10;;;;;;4993619;28;20128;-59
2023/10/06 09:45:40;;;;;;;24.02;12.43;;;27.70;91.30;;;;;;4993644;28;20065;-60
2023/10/06 09:48:44;;;;;;;23.10;15.82;;;27.80;91.30;;;;;;4993618;28;20505;-59
2023/10/06 09:51:51;;;;;;;21.58;13.48;;;27.90;91.40;;;;;;4993342;28;20064;-58
2023/10/06 09:54:57;;;;;;;26.95;15.07;;;28.10;90.90;;;;;;4993533;28;20045;-59
2023/10/06 09:58:05;;;;;;;21.33;14.30;;;28.00;91.10;;;;;;4992357;28;20045;-60
2023/10/06 10:01:10;;;;;;;20.83;14.00;;;28.10;91.00;;;;;;4993353;28;20041;-60
2023/10/06 10:04:19;;;;;;;20.25;13.50;;;28.10;91.10;;;;;;4993302;28;20524;-60
2023/10/06 10:07:23;;;;;;;19.73;13.55;;;28.20;90.90;;;;;;4992330;28;20398;-59
2023/10/06 10:10:28;;;;;;;22.98;14.70;;;28.30;90.60;;;;;;4993146;28;20065;-60
2023/10/06 10:13:49;;;;;;;24.30;15.82;;;28.20;90.00;;;;;;5025057;28;20099;-59
2023/10/06 10:16:56;;;;;;;;;;;28.30;90.10;;;;;;5032246;28;20036;-59
2023/10/06 10:20:00;;;;;;;16.35;11.43;;;28.30;90.40;;;;;;5032379;28;19920;-60
2023/10/06 10:23:04;;;;;;;24.50;13.88;;;28.40;89.80;;;;;;5032059;28;20044;-59
2023/10/06 10:26:27;;;;;;;17.02;10.82;;;28.40;89.90;;;;;;5032212;28;20053;-59
2023/10/06 10:29:31;;;;;;;13.32;9.57;;;27.90;88.80;;;;;;5031969;28;20055;-59
2023/10/06 10:32:43;;;;;;;16.35;10.50;;;28.50;89.80;;;;;;5032150;28;20052;-57
2023/10/06 10:36:12;;;;;;;23.02;12.40;;;28.60;89.90;;;;;;5032218;28;20044;-60
2023/10/06 10:39:19;;;;;;;22.25;13.20;;;28.60;89.10;;;;;;5031147;28;20045;-60
2023/10/06 10:42:37;;;;;;;26.90;14.50;;;28.60;88.00;;;;;;5032147;28;20048;-58
2023/10/06 10:45:45;;;;;;;22.08;12.13;;;28.60;88.60;;;;;;5031716;28;20048;-59
2023/10/06 10:48:49;;;;;;;25.52;14.07;;;28.50;89.00;;;;;;5031782;28;20045;-60
2023/10/06 10:52:00;;;;;;;27.85;14.50;;;28.50;89.60;;;;;;5031989;28;20397;-59
2023/10/06 10:55:06;;;;;;;17.00;11.50;;;28.40;89.00;;;;;;5031660;28;20049;-59
2023/10/06 10:58:10;;;;;;;23.38;15.02;;;28.40;89.60;;;;;;5031645;28;20056;-58
2023/10/06 11:01:24;;;;;;;15.63;11.23;;;28.30;89.10;;;;;;5030245;28;20421;-58
2023/10/06 11:07:35;;;;;;;16.50;11.43;;;28.30;89.30;;;;;;5030770;28;20049;-58
2023/10/06 11:10:38;;;;;;;17.92;11.02;;;28.30;89.90;;;;;;5030777;28;20040;-58
2023/10/06 11:13:57;;;;;;;19.27;12.38;;;28.40;90.00;;;;;;5030409;28;20334;-59
2023/10/06 11:17:05;;;;;;;24.75;13.35;;;27.70;87.80;;;;;;5031068;28;20052;-59
2023/10/06 11:20:21;;;;;;;20.55;12.27;;;28.40;88.90;;;;;;5031349;28;20444;-58
2023/10/06 11:23:41;;;;;;;19.65;11.98;;;28.30;89.30;;;;;;5031335;28;20040;-59
2023/10/06 11:26:44;;;;;;;24.60;12.77;;;28.30;89.30;;;;;;5031309;28;20057;-58
2023/10/06 11:29:52;;;;;;;22.60;11.57;;;29.10;90.30;;;;;;5029822;28;20057;-58
2023/10/06 11:32:57;;;;;;;21.73;12.75;;;28.40;90.30;;;;;;5031122;28;20052;-58
2023/10/06 11:36:01;;;;;;;18.65;12.52;;;28.30;90.30;;;;;;5031131;28;20044;-58
2023/10/06 11:39:05;;;;;;;18.70;12.82;;;28.30;90.50;;;;;;5030875;28;20040;-59
2023/10/06 11:42:24;;;;;;;17.02;11.82;;;28.30;90.60;;;;;;5030881;28;20045;-57
2023/10/06 11:45:31;;;;;;;22.55;12.52;;;28.20;90.30;;;;;;5030835;28;20052;-57
2023/10/06 11:48:35;;;;;;;21.08;12.23;;;28.20;90.30;;;;;;5030710;28;20064;-59
2023/10/06 11:51:40;;;;;;;19.00;12.18;;;28.10;90.60;;;;;;5030685;28;20060;-58
2023/10/06 11:54:44;;;;;;;20.25;12.70;;;28.10;90.30;;;;;;5030766;28;20516;-58
2023/10/06 11:57:51;;;;;;;18.50;11.85;;;28.10;90.60;;;;;;5030803;28;20052;-58
2023/10/06 12:00:55;;;;;;;15.18;10.38;;;28.20;90.90;;;;;;5030761;28;20044;-61
2023/10/06 12:03:59;;;;;;;15.00;11.02;;;28.10;90.60;;;;;;5030902;28;20048;-58
2023/10/06 12:07:04;;;;;;;13.13;10.15;;;28.20;90.00;;;;;;5030748;28;20053;-57
2023/10/06 12:10:08;;;;;;;22.02;11.95;;;28.20;90.00;;;;;;5029679;28;20495;-58
2023/10/06 12:13:13;;;;;;;16.70;10.90;;;28.10;90.20;;;;;;5030410;28;20061;-58
2023/10/06 12:16:17;;;;;;;15.82;10.75;;;28.10;90.20;;;;;;5030896;28;20222;-58
2023/10/06 12:19:23;;;;;;;13.63;9.95;;;28.10;89.70;;;;;;5030699;28;20510;-59
2023/10/06 12:22:27;;;;;;;14.98;9.57;;;28.00;89.20;;;;;;5030612;28;20041;-58
2023/10/06 12:25:32;;;;;;;18.88;10.65;;;28.10;89.80;;;;;;5030354;28;20515;-58
2023/10/06 12:28:38;;;;;;;16.13;9.55;;;28.10;89.30;;;;;;5029607;28;20052;-58
2023/10/06 12:31:49;;;;;;;18.85;10.50;;;28.10;89.10;;;;;;5029410;28;20385;-58
2023/10/06 12:34:53;;;;;;;15.63;9.95;;;28.00;88.80;;;;;;5030082;28;20060;-58
2023/10/06 12:37:56;;;;;;;13.07;10.23;;;28.10;88.10;;;;;;5030502;28;20116;-57
2023/10/06 12:41:00;;;;;;;12.90;9.02;;;28.00;88.50;;;;;;5032935;28;20048;-58
2023/10/06 12:44:04;;;;;;;21.35;10.35;;;28.00;87.80;;;;;;5033801;28;20040;-58
2023/10/06 12:47:12;;;;;;;13.15;9.40;;;27.90;87.90;;;;;;5033991;28;20057;-58
2023/10/06 12:50:19;;;;;;;15.52;9.63;;;27.90;88.40;;;;;;5034064;28;20048;-59
2023/10/06 12:53:22;;;;;;;17.58;10.18;;;27.90;88.00;;;;;;5033855;28;20116;-58
2023/10/06 12:56:29;;;;;;;16.85;10.27;;;27.90;88.30;;;;;;5033754;28;20044;-58
2023/10/06 12:59:36;;;;;;;15.95;10.88;;;27.90;88.00;;;;;;5033909;28;20052;-59
2023/10/06 13:02:41;;;;;;;14.95;10.10;;;27.90;87.90;;;;;;5033650;28;20044;-58
2023/10/06 13:05:46;;;;;;;13.75;10.05;;;27.90;87.70;;;;;;5033685;28;20476;-57
2023/10/06 13:08:50;;;;;;;14.80;9.60;;;26.80;87.30;;;;;;5033677;28;20060;-58
2023/10/06 13:11:54;;;;;;;46.53;12.57;;;27.90;88.60;;;;;;5032578;28;20048;-59
2023/10/06 13:15:02;;;;;;;21.67;10.88;;;27.80;88.60;;;;;;5032831;28;20052;-58
2023/10/06 13:18:08;;;;;;;19.48;10.32;;;27.80;88.90;;;;;;5033328;28;20539;-60
2023/10/06 13:21:12;;;;;;;17.38;10.40;;;27.80;88.90;;;;;;5033223;28;20049;-58
2023/10/06 13:24:16;;;;;;;17.25;9.57;;;27.80;89.10;;;;;;5033470;28;20045;-58
2023/10/06 13:27:23;;;;;;;15.18;10.18;;;27.80;89.50;;;;;;5033058;28;20056;-58
2023/10/06 13:30:32;;;;;;;15.68;9.27;;;27.70;88.90;;;;;;5033002;28;20040;-59
2023/10/06 13:33:37;;;;;;;14.73;10.18;;;27.70;89.50;;;;;;5033339;28;20120;-57
2023/10/06 13:36:41;;;;;;;12.90;9.40;;;26.80;88.20;;;;;;5033239;28;20052;-59
2023/10/06 13:39:47;;;;;;;15.75;9.57;;;26.60;88.00;;;;;;5033157;28;20040;-58
2023/10/06 13:42:50;;;;;;;20.00;10.05;;;27.50;89.30;;;;;;5033069;28;20048;-57
2023/10/06 13:45:57;;;;;;;20.40;9.85;;;27.60;89.50;;;;;;5032656;28;20049;-59
2023/10/06 13:49:01;;;;;;;17.00;9.50;;;28.40;89.90;;;;;;5032899;28;20052;-59
2023/10/06 13:52:07;;;;;;;18.55;10.25;;;27.70;89.70;;;;;;5032242;28;20044;-60
2023/10/06 13:55:12;;;;;;;22.35;9.35;;;27.40;90.00;;;;;;5032082;28;20068;-59
2023/10/06 13:58:16;;;;;;;15.68;8.60;;;27.40;90.20;;;;;;5032687;28;20048;-61
2023/10/06 14:01:22;;;;;;;16.77;10.27;;;27.30;90.00;;;;;;5032670;28;20056;-58
2023/10/06 14:04:26;;;;;;;23.05;9.57;;;27.20;90.00;;;;;;5032353;28;20421;-59
2023/10/06 14:07:32;;;;;;;20.65;10.20;;;27.20;90.30;;;;;;5032571;28;20068;-59
2023/10/06 14:10:37;;;;;;;15.07;9.10;;;27.20;90.40;;;;;;5032438;28;20520;-57
2023/10/06 14:13:44;;;;;;;21.58;11.15;;;27.20;90.60;;;;;;5031577;28;20060;-59
2023/10/06 14:16:49;;;;;;;17.17;11.15;;;27.20;90.70;;;;;;5031237;28;20061;-59
2023/10/06 14:19:53;;;;;;;18.13;11.10;;;27.10;90.80;;;;;;5032454;28;20056;-59
2023/10/06 14:22:57;;;;;;;14.35;10.02;;;27.10;90.60;;;;;;5030765;28;20056;-59
2023/10/06 14:26:05;;;;;;;16.25;11.30;;;27.90;90.80;;;;;;5031227;28;20064;-57
2023/10/06 14:29:10;;;;;;;25.73;12.65;;;27.00;90.50;;;;;;5031281;28;20060;-58
2023/10/06 14:45:59;;;;;;;26.33;13.23;;;26.90;91.40;;;;;;5031559;28;20052;-58
2023/10/06 14:49:13;;;;;;;22.70;11.85;;;26.80;91.10;;;;;;5031465;28;20499;-58
2023/10/06 14:52:22;;;;;;;20.45;12.45;;;26.80;90.80;;;;;;5031936;28;20045;-59
2023/10/06 14:55:26;;;;;;;14.95;11.10;;;26.80;91.00;;;;;;5031572;28;20041;-59
2023/10/06 14:58:30;;;;;;;17.48;11.93;;;26.80;91.00;;;;;;5031485;28;20053;-59
2023/10/06 15:01:35;;;;;;;19.77;12.73;;;26.70;90.70;;;;;;5031496;28;20495;-59
2023/10/06 15:04:40;;;;;;;31.05;15.45;;;26.70;90.90;;;;;;5030616;28;20049;-59
2023/10/06 15:07:46;;;;;;;20.13;13.20;;;26.70;91.00;;;;;;5030380;28;20068;-58
2023/10/06 15:10:57;;;;;;;21.10;13.00;;;26.60;91.10;;;;;;5031258;28;20044;-58
2023/10/06 15:14:03;;;;;;;18.42;12.75;;;26.60;91.10;;;;;;5031272;28;20052;-57
2023/10/06 15:17:10;;;;;;;23.88;13.68;;;26.60;91.30;;;;;;5031290;28;20508;-58
2023/10/06 15:20:15;;;;;;;21.13;13.10;;;26.50;91.10;;;;;;5031019;28;20044;-57
2023/10/06 15:23:21;;;;;;;19.90;12.77;;;26.50;91.30;;;;;;5031074;28;20365;-58
2023/10/06 15:26:26;;;;;;;21.77;13.77;;;26.50;91.30;;;;;;5030795;28;20057;-58
2023/10/06 15:29:30;;;;;;;23.27;13.50;;;26.50;91.20;;;;;;5031146;28;20048;-59
2023/10/06 15:32:34;;;;;;;29.30;14.45;;;25.00;90.60;;;;;;5030729;28;20044;-57
2023/10/06 15:35:38;;;;;;;20.10;12.60;;;26.40;90.90;;;;;;5030783;28;20045;-57
2023/10/06 15:38:42;;;;;;;24.52;14.93;;;26.40;90.90;;;;;;5030904;28;20052;-59
2023/10/06 15:41:51;;;;;;;33.63;14.70;;;26.20;91.00;;;;;;5030777;28;20045;-58
2023/10/06 15:44:57;;;;;;;31.33;13.82;;;26.30;91.30;;;;;;5030914;28;20052;-58
2023/10/06 15:48:09;;;;;;;23.75;14.43;;;26.20;91.30;;;;;;5031011;28;20112;-59
2023/10/06 15:51:17;;;;;;;27.05;14.10;;;25.90;91.20;;;;;;5030915;28;20052;-59
2023/10/06 15:54:22;;;;;;;23.27;13.23;;;26.20;91.60;;;;;;5030727;28;20049;-59
2023/10/06 15:57:29;;;;;;;37.20;15.00;;;25.50;91.10;;;;;;5029891;28;20049;-59
2023/10/06 16:00:37;;;;;;;25.13;13.68;;;26.10;91.50;;;;;;5030114;28;20056;-58
2023/10/06 16:03:47;;;;;;;24.45;13.48;;;27.00;91.80;;;;;;5030645;28;20056;-59
2023/10/06 16:06:51;;;;;;;20.40;12.43;;;26.00;91.50;;;;;;5030729;28;20072;-58